sensor_id;sensor_type;location;lat;lon;timestamp;P1;durP1;ratioP1;P2;durP2;ratioP2
69034;SDS011;56091;55.756;37.412;2023-01-30T00:04:37;14.77;;;4.97;;
69034;SDS011;56091;55.756;37.412;2023-01-30T00:09:37;11.97;;;4.87;;
69034;SDS011;56091;55.756;37.412;2023-01-30T00:14:38;11.02;;;4.15;;
69034;SDS011;56091;55.756;37.412;2023-01-30T00:19:39;12.77;;;3.77;;
69034;SDS011;56091;55.756;37.412;2023-01-30T00:24:39;16.07;;;5.10;;
69034;SDS011;56091;55.756;37.412;2023-01-30T00:29:40;14.82;;;5.38;;
69034;SDS011;56091;55.756;37.412;2023-01-30T00:34:41;12.82;;;4.30;;
69034;SDS011;56091;55.756;37.412;2023-01-30T00:39:41;15.03;;;5.47;;
69034;SDS011;56091;55.756;37.412;2023-01-30T00:44:42;14.52;;;4.82;;
69034;SDS011;56091;55.756;37.412;2023-01-30T00:50:03;14.32;;;5.30;;
69034;SDS011;56091;55.756;37.412;2023-01-30T00:55:05;13.55;;;4.70;;
69034;SDS011;56091;55.756;37.412;2023-01-30T01:00:06;13.93;;;5.28;;
69034;SDS011;56091;55.756;37.412;2023-01-30T01:05:09;16.25;;;4.80;;
69034;SDS011;56091;55.756;37.412;2023-01-30T01:10:10;12.35;;;4.25;;
69034;SDS011;56091;55.756;37.412;2023-01-30T01:15:15;14.63;;;5.07;;
69034;SDS011;56091;55.756;37.412;2023-01-30T01:20:16;14.10;;;3.95;;
69034;SDS011;56091;55.756;37.412;2023-01-30T01:25:18;12.80;;;4.80;;
69034;SDS011;56091;55.756;37.412;2023-01-30T01:30:19;15.52;;;5.47;;
69034;SDS011;56091;55.756;37.412;2023-01-30T01:35:20;12.60;;;4.90;;
69034;SDS011;56091;55.756;37.412;2023-01-30T01:40:21;14.35;;;5.38;;
69034;SDS011;56091;55.756;37.412;2023-01-30T01:45:41;17.17;;;4.88;;
69034;SDS011;56091;55.756;37.412;2023-01-30T01:50:53;17.88;;;5.18;;
69034;SDS011;56091;55.756;37.412;2023-01-30T01:55:58;15.52;;;5.35;;
69034;SDS011;56091;55.756;37.412;2023-01-30T02:01:02;12.93;;;5.10;;
69034;SDS011;56091;55.756;37.412;2023-01-30T02:06:04;12.10;;;4.55;;
69034;SDS011;56091;55.756;37.412;2023-01-30T02:16:19;17.88;;;5.03;;
69034;SDS011;56091;55.756;37.412;2023-01-30T02:26:28;19.92;;;5.68;;
69034;SDS011;56091;55.756;37.412;2023-01-30T02:31:42;13.93;;;5.57;;
69034;SDS011;56091;55.756;37.412;2023-01-30T02:37:00;17.42;;;5.60;;
69034;SDS011;56091;55.756;37.412;2023-01-30T02:47:27;13.30;;;5.63;;
69034;SDS011;56091;55.756;37.412;2023-01-30T02:52:34;14.93;;;5.57;;
69034;SDS011;56091;55.756;37.412;2023-01-30T02:57:35;15.48;;;5.07;;
69034;SDS011;56091;55.756;37.412;2023-01-30T03:02:40;15.07;;;5.87;;
69034;SDS011;56091;55.756;37.412;2023-01-30T03:13:28;15.97;;;5.97;;
69034;SDS011;56091;55.756;37.412;2023-01-30T03:18:43;13.30;;;5.50;;
69034;SDS011;56091;55.756;37.412;2023-01-30T03:23:49;13.37;;;5.07;;
69034;SDS011;56091;55.756;37.412;2023-01-30T03:28:50;12.85;;;5.38;;
69034;SDS011;56091;55.756;37.412;2023-01-30T03:33:53;17.37;;;6.03;;
69034;SDS011;56091;55.756;37.412;2023-01-30T03:38:54;15.95;;;6.22;;
69034;SDS011;56091;55.756;37.412;2023-01-30T03:43:56;14.47;;;5.30;;
69034;SDS011;56091;55.756;37.412;2023-01-30T03:48:57;14.57;;;5.38;;
69034;SDS011;56091;55.756;37.412;2023-01-30T03:53:58;15.73;;;6.23;;
69034;SDS011;56091;55.756;37.412;2023-01-30T03:58:58;15.25;;;5.50;;
69034;SDS011;56091;55.756;37.412;2023-01-30T04:04:08;19.23;;;5.65;;
69034;SDS011;56091;55.756;37.412;2023-01-30T04:09:09;14.10;;;5.57;;
69034;SDS011;56091;55.756;37.412;2023-01-30T04:14:15;10.45;;;3.97;;
69034;SDS011;56091;55.756;37.412;2023-01-30T04:19:36;15.52;;;5.60;;
69034;SDS011;56091;55.756;37.412;2023-01-30T04:24:36;13.90;;;5.75;;
69034;SDS011;56091;55.756;37.412;2023-01-30T04:29:37;15.07;;;5.63;;
69034;SDS011;56091;55.756;37.412;2023-01-30T04:34:42;14.73;;;5.50;;
69034;SDS011;56091;55.756;37.412;2023-01-30T04:39:44;15.10;;;5.40;;
69034;SDS011;56091;55.756;37.412;2023-01-30T04:44:45;13.07;;;5.65;;
69034;SDS011;56091;55.756;37.412;2023-01-30T04:49:51;14.07;;;5.40;;
69034;SDS011;56091;55.756;37.412;2023-01-30T04:54:51;12.13;;;5.22;;
69034;SDS011;56091;55.756;37.412;2023-01-30T04:59:52;14.70;;;5.40;;
69034;SDS011;56091;55.756;37.412;2023-01-30T05:04:53;14.73;;;5.60;;
69034;SDS011;56091;55.756;37.412;2023-01-30T05:09:54;14.77;;;5.17;;
69034;SDS011;56091;55.756;37.412;2023-01-30T05:14:55;14.70;;;6.20;;
69034;SDS011;56091;55.756;37.412;2023-01-30T05:19:55;16.15;;;5.35;;
69034;SDS011;56091;55.756;37.412;2023-01-30T05:24:56;15.53;;;6.20;;
69034;SDS011;56091;55.756;37.412;2023-01-30T05:29:58;15.70;;;6.82;;
69034;SDS011;56091;55.756;37.412;2023-01-30T05:34:58;19.60;;;7.67;;
69034;SDS011;56091;55.756;37.412;2023-01-30T05:39:59;18.47;;;6.97;;
69034;SDS011;56091;55.756;37.412;2023-01-30T05:45:00;17.10;;;6.53;;
69034;SDS011;56091;55.756;37.412;2023-01-30T05:50:00;15.53;;;5.80;;
69034;SDS011;56091;55.756;37.412;2023-01-30T05:55:01;14.27;;;5.40;;
69034;SDS011;56091;55.756;37.412;2023-01-30T06:00:03;16.60;;;5.73;;
69034;SDS011;56091;55.756;37.412;2023-01-30T06:05:13;15.10;;;5.70;;
69034;SDS011;56091;55.756;37.412;2023-01-30T06:10:13;16.03;;;6.17;;
69034;SDS011;56091;55.756;37.412;2023-01-30T06:15:17;14.85;;;5.57;;
69034;SDS011;56091;55.756;37.412;2023-01-30T06:20:18;15.43;;;5.88;;
69034;SDS011;56091;55.756;37.412;2023-01-30T06:25:18;14.43;;;5.60;;
69034;SDS011;56091;55.756;37.412;2023-01-30T06:30:19;15.48;;;5.43;;
69034;SDS011;56091;55.756;37.412;2023-01-30T06:35:20;12.40;;;4.80;;
69034;SDS011;56091;55.756;37.412;2023-01-30T06:40:21;11.98;;;4.60;;
69034;SDS011;56091;55.756;37.412;2023-01-30T06:45:22;12.63;;;5.03;;
69034;SDS011;56091;55.756;37.412;2023-01-30T06:50:23;12.93;;;5.37;;
69034;SDS011;56091;55.756;37.412;2023-01-30T06:55:26;13.18;;;4.88;;
69034;SDS011;56091;55.756;37.412;2023-01-30T07:00:30;13.83;;;5.57;;
69034;SDS011;56091;55.756;37.412;2023-01-30T07:05:32;15.73;;;5.85;;
69034;SDS011;56091;55.756;37.412;2023-01-30T07:10:33;14.33;;;4.47;;
69034;SDS011;56091;55.756;37.412;2023-01-30T07:15:35;12.25;;;5.15;;
69034;SDS011;56091;55.756;37.412;2023-01-30T07:20:35;12.83;;;4.97;;
69034;SDS011;56091;55.756;37.412;2023-01-30T07:25:36;13.68;;;4.45;;
69034;SDS011;56091;55.756;37.412;2023-01-30T07:30:37;14.80;;;5.10;;
69034;SDS011;56091;55.756;37.412;2023-01-30T07:35:38;12.57;;;4.70;;
69034;SDS011;56091;55.756;37.412;2023-01-30T07:40:41;13.03;;;4.90;;
69034;SDS011;56091;55.756;37.412;2023-01-30T07:45:43;13.60;;;5.60;;
69034;SDS011;56091;55.756;37.412;2023-01-30T07:50:46;13.48;;;5.53;;
69034;SDS011;56091;55.756;37.412;2023-01-30T07:55:46;13.10;;;5.50;;
69034;SDS011;56091;55.756;37.412;2023-01-30T08:00:47;15.15;;;4.85;;
69034;SDS011;56091;55.756;37.412;2023-01-30T08:05:48;13.33;;;5.43;;
69034;SDS011;56091;55.756;37.412;2023-01-30T08:10:51;12.93;;;5.13;;
69034;SDS011;56091;55.756;37.412;2023-01-30T08:15:57;14.07;;;6.10;;
69034;SDS011;56091;55.756;37.412;2023-01-30T08:20:59;14.10;;;4.80;;
69034;SDS011;56091;55.756;37.412;2023-01-30T08:26:02;14.13;;;5.47;;
69034;SDS011;56091;55.756;37.412;2023-01-30T08:31:07;13.80;;;5.03;;
69034;SDS011;56091;55.756;37.412;2023-01-30T08:36:12;13.47;;;5.47;;
69034;SDS011;56091;55.756;37.412;2023-01-30T08:41:12;15.55;;;5.10;;
69034;SDS011;56091;55.756;37.412;2023-01-30T08:46:13;14.18;;;5.20;;
69034;SDS011;56091;55.756;37.412;2023-01-30T08:51:14;13.27;;;5.03;;
69034;SDS011;56091;55.756;37.412;2023-01-30T08:56:15;13.15;;;5.07;;
69034;SDS011;56091;55.756;37.412;2023-01-30T09:01:15;13.87;;;5.17;;
69034;SDS011;56091;55.756;37.412;2023-01-30T09:06:17;15.38;;;5.57;;
69034;SDS011;56091;55.756;37.412;2023-01-30T09:11:18;16.75;;;5.50;;
69034;SDS011;56091;55.756;37.412;2023-01-30T09:16:19;13.83;;;5.00;;
69034;SDS011;56091;55.756;37.412;2023-01-30T09:21:19;12.60;;;5.25;;
69034;SDS011;56091;55.756;37.412;2023-01-30T09:26:21;13.23;;;4.90;;
69034;SDS011;56091;55.756;37.412;2023-01-30T09:31:22;13.70;;;5.30;;
69034;SDS011;56091;55.756;37.412;2023-01-30T09:36:22;15.70;;;5.80;;
69034;SDS011;56091;55.756;37.412;2023-01-30T09:51:49;14.43;;;5.20;;
69034;SDS011;56091;55.756;37.412;2023-01-30T09:57:09;13.50;;;5.20;;
69034;SDS011;56091;55.756;37.412;2023-01-30T10:02:23;15.37;;;4.87;;
69034;SDS011;56091;55.756;37.412;2023-01-30T10:07:35;32.85;;;12.98;;
69034;SDS011;56091;55.756;37.412;2023-01-30T10:13:02;16.90;;;7.00;;
69034;SDS011;56091;55.756;37.412;2023-01-30T10:29:35;13.23;;;4.65;;
69034;SDS011;56091;55.756;37.412;2023-01-30T10:34:39;14.07;;;4.87;;
69034;SDS011;56091;55.756;37.412;2023-01-30T10:44:51;15.30;;;5.37;;
69034;SDS011;56091;55.756;37.412;2023-01-30T11:00:38;15.15;;;5.68;;
69034;SDS011;56091;55.756;37.412;2023-01-30T11:10:56;28.90;;;12.10;;
69034;SDS011;56091;55.756;37.412;2023-01-30T11:16:07;19.07;;;8.10;;
69034;SDS011;56091;55.756;37.412;2023-01-30T11:21:13;15.13;;;5.82;;
69034;SDS011;56091;55.756;37.412;2023-01-30T11:26:33;15.63;;;6.00;;
69034;SDS011;56091;55.756;37.412;2023-01-30T11:31:36;17.30;;;5.60;;
69034;SDS011;56091;55.756;37.412;2023-01-30T11:36:39;14.97;;;5.83;;
69034;SDS011;56091;55.756;37.412;2023-01-30T11:41:41;16.35;;;5.55;;
69034;SDS011;56091;55.756;37.412;2023-01-30T11:46:43;15.30;;;5.93;;
69034;SDS011;56091;55.756;37.412;2023-01-30T11:51:45;15.63;;;6.28;;
69034;SDS011;56091;55.756;37.412;2023-01-30T11:56:54;18.77;;;6.23;;
69034;SDS011;56091;55.756;37.412;2023-01-30T12:07:31;16.03;;;5.83;;
69034;SDS011;56091;55.756;37.412;2023-01-30T12:12:36;17.23;;;5.80;;
69034;SDS011;56091;55.756;37.412;2023-01-30T12:33:20;11.25;;;4.40;;
69034;SDS011;56091;55.756;37.412;2023-01-30T12:48:54;12.70;;;4.47;;
69034;SDS011;56091;55.756;37.412;2023-01-30T13:04:37;17.30;;;5.95;;
69034;SDS011;56091;55.756;37.412;2023-01-30T13:15:06;13.73;;;6.13;;
69034;SDS011;56091;55.756;37.412;2023-01-30T13:30:35;13.17;;;4.80;;
69034;SDS011;56091;55.756;37.412;2023-01-30T13:35:45;12.68;;;4.93;;
69034;SDS011;56091;55.756;37.412;2023-01-30T13:40:50;14.70;;;5.40;;
69034;SDS011;56091;55.756;37.412;2023-01-30T13:45:56;12.50;;;5.20;;
69034;SDS011;56091;55.756;37.412;2023-01-30T13:51:11;17.63;;;5.30;;
69034;SDS011;56091;55.756;37.412;2023-01-30T14:12:21;10.27;;;4.40;;
69034;SDS011;56091;55.756;37.412;2023-01-30T14:17:27;11.32;;;4.72;;
69034;SDS011;56091;55.756;37.412;2023-01-30T14:33:00;11.60;;;5.13;;
69034;SDS011;56091;55.756;37.412;2023-01-30T14:38:10;11.05;;;4.70;;
69034;SDS011;56091;55.756;37.412;2023-01-30T14:54:01;9.27;;;3.80;;
69034;SDS011;56091;55.756;37.412;2023-01-30T14:59:16;9.95;;;3.83;;
69034;SDS011;56091;55.756;37.412;2023-01-30T15:04:23;9.33;;;3.50;;
69034;SDS011;56091;55.756;37.412;2023-01-30T15:09:29;12.57;;;4.50;;
69034;SDS011;56091;55.756;37.412;2023-01-30T15:14:42;10.03;;;4.33;;
69034;SDS011;56091;55.756;37.412;2023-01-30T15:36:16;11.03;;;4.37;;
69034;SDS011;56091;55.756;37.412;2023-01-30T15:41:29;12.27;;;4.32;;
69034;SDS011;56091;55.756;37.412;2023-01-30T15:46:47;10.57;;;4.47;;
69034;SDS011;56091;55.756;37.412;2023-01-30T15:52:03;10.50;;;4.28;;
69034;SDS011;56091;55.756;37.412;2023-01-30T15:57:10;9.33;;;3.77;;
69034;SDS011;56091;55.756;37.412;2023-01-30T16:02:22;8.93;;;3.85;;
69034;SDS011;56091;55.756;37.412;2023-01-30T16:07:25;9.73;;;3.47;;
69034;SDS011;56091;55.756;37.412;2023-01-30T16:12:27;10.20;;;4.50;;
69034;SDS011;56091;55.756;37.412;2023-01-30T16:17:29;9.10;;;4.00;;
69034;SDS011;56091;55.756;37.412;2023-01-30T16:22:31;10.30;;;3.88;;
69034;SDS011;56091;55.756;37.412;2023-01-30T16:27:34;8.40;;;3.23;;
69034;SDS011;56091;55.756;37.412;2023-01-30T16:32:37;9.43;;;3.30;;
69034;SDS011;56091;55.756;37.412;2023-01-30T16:37:39;9.23;;;3.20;;
69034;SDS011;56091;55.756;37.412;2023-01-30T16:42:40;11.30;;;3.80;;
69034;SDS011;56091;55.756;37.412;2023-01-30T16:47:54;7.82;;;2.78;;
69034;SDS011;56091;55.756;37.412;2023-01-30T16:53:23;7.77;;;3.00;;
69034;SDS011;56091;55.756;37.412;2023-01-30T16:58:31;8.13;;;3.30;;
69034;SDS011;56091;55.756;37.412;2023-01-30T17:03:37;7.30;;;3.10;;
69034;SDS011;56091;55.756;37.412;2023-01-30T17:19:10;8.02;;;3.00;;
69034;SDS011;56091;55.756;37.412;2023-01-30T17:24:12;7.33;;;2.80;;
69034;SDS011;56091;55.756;37.412;2023-01-30T17:29:17;7.93;;;3.17;;
69034;SDS011;56091;55.756;37.412;2023-01-30T17:34:19;9.27;;;3.30;;
69034;SDS011;56091;55.756;37.412;2023-01-30T17:39:22;9.50;;;3.25;;
69034;SDS011;56091;55.756;37.412;2023-01-30T17:44:26;8.13;;;3.20;;
69034;SDS011;56091;55.756;37.412;2023-01-30T17:49:26;7.88;;;2.80;;
69034;SDS011;56091;55.756;37.412;2023-01-30T17:54:27;7.90;;;3.03;;
69034;SDS011;56091;55.756;37.412;2023-01-30T17:59:32;8.38;;;2.78;;
69034;SDS011;56091;55.756;37.412;2023-01-30T18:04:33;9.43;;;2.83;;
69034;SDS011;56091;55.756;37.412;2023-01-30T18:09:34;7.85;;;2.85;;
69034;SDS011;56091;55.756;37.412;2023-01-30T18:14:35;6.87;;;2.77;;
69034;SDS011;56091;55.756;37.412;2023-01-30T18:19:36;12.10;;;5.10;;
69034;SDS011;56091;55.756;37.412;2023-01-30T18:24:37;13.27;;;5.50;;
69034;SDS011;56091;55.756;37.412;2023-01-30T18:29:38;10.30;;;3.80;;
69034;SDS011;56091;55.756;37.412;2023-01-30T18:34:39;10.18;;;3.60;;
69034;SDS011;56091;55.756;37.412;2023-01-30T18:39:42;11.10;;;4.53;;
69034;SDS011;56091;55.756;37.412;2023-01-30T18:44:43;10.50;;;4.00;;
69034;SDS011;56091;55.756;37.412;2023-01-30T18:49:44;6.13;;;2.60;;
69034;SDS011;56091;55.756;37.412;2023-01-30T18:54:47;5.82;;;2.47;;
69034;SDS011;56091;55.756;37.412;2023-01-30T18:59:51;8.10;;;2.97;;
69034;SDS011;56091;55.756;37.412;2023-01-30T19:04:54;8.05;;;3.40;;
69034;SDS011;56091;55.756;37.412;2023-01-30T19:09:55;8.57;;;3.17;;
69034;SDS011;56091;55.756;37.412;2023-01-30T19:14:59;8.63;;;3.35;;
69034;SDS011;56091;55.756;37.412;2023-01-30T19:20:00;8.80;;;3.43;;
69034;SDS011;56091;55.756;37.412;2023-01-30T19:25:04;7.45;;;2.85;;
69034;SDS011;56091;55.756;37.412;2023-01-30T19:30:06;8.17;;;2.83;;
69034;SDS011;56091;55.756;37.412;2023-01-30T19:35:09;8.95;;;3.70;;
69034;SDS011;56091;55.756;37.412;2023-01-30T19:40:10;8.37;;;3.67;;
69034;SDS011;56091;55.756;37.412;2023-01-30T19:45:12;10.68;;;3.70;;
69034;SDS011;56091;55.756;37.412;2023-01-30T19:50:14;10.27;;;3.50;;
69034;SDS011;56091;55.756;37.412;2023-01-30T19:55:15;8.43;;;3.00;;
69034;SDS011;56091;55.756;37.412;2023-01-30T20:00:18;8.07;;;3.53;;
69034;SDS011;56091;55.756;37.412;2023-01-30T20:05:19;8.40;;;3.20;;
69034;SDS011;56091;55.756;37.412;2023-01-30T20:10:20;9.57;;;3.47;;
69034;SDS011;56091;55.756;37.412;2023-01-30T20:15:21;10.10;;;3.85;;
69034;SDS011;56091;55.756;37.412;2023-01-30T20:20:22;11.00;;;3.75;;
69034;SDS011;56091;55.756;37.412;2023-01-30T20:25:23;8.47;;;3.37;;
69034;SDS011;56091;55.756;37.412;2023-01-30T20:30:24;11.27;;;3.67;;
69034;SDS011;56091;55.756;37.412;2023-01-30T20:35:24;9.80;;;3.10;;
69034;SDS011;56091;55.756;37.412;2023-01-30T20:40:25;8.60;;;3.07;;
69034;SDS011;56091;55.756;37.412;2023-01-30T20:45:26;8.25;;;3.28;;
69034;SDS011;56091;55.756;37.412;2023-01-30T20:50:27;6.28;;;2.58;;
69034;SDS011;56091;55.756;37.412;2023-01-30T20:55:27;10.43;;;3.40;;
69034;SDS011;56091;55.756;37.412;2023-01-30T21:00:28;9.32;;;3.45;;
69034;SDS011;56091;55.756;37.412;2023-01-30T21:05:29;9.60;;;3.27;;
69034;SDS011;56091;55.756;37.412;2023-01-30T21:10:32;8.00;;;2.88;;
69034;SDS011;56091;55.756;37.412;2023-01-30T21:15:34;8.85;;;3.10;;
69034;SDS011;56091;55.756;37.412;2023-01-30T21:20:34;11.40;;;2.97;;
69034;SDS011;56091;55.756;37.412;2023-01-30T21:25:43;8.15;;;3.13;;
69034;SDS011;56091;55.756;37.412;2023-01-30T21:30:44;9.33;;;3.33;;
69034;SDS011;56091;55.756;37.412;2023-01-30T21:35:46;7.85;;;3.03;;
69034;SDS011;56091;55.756;37.412;2023-01-30T21:40:51;7.80;;;2.83;;
69034;SDS011;56091;55.756;37.412;2023-01-30T21:46:12;7.75;;;3.10;;
69034;SDS011;56091;55.756;37.412;2023-01-30T21:51:15;8.93;;;3.43;;
69034;SDS011;56091;55.756;37.412;2023-01-30T21:56:16;9.50;;;3.63;;
69034;SDS011;56091;55.756;37.412;2023-01-30T22:01:26;8.40;;;3.27;;
69034;SDS011;56091;55.756;37.412;2023-01-30T22:06:27;9.93;;;3.20;;
69034;SDS011;56091;55.756;37.412;2023-01-30T22:11:29;8.03;;;3.37;;
69034;SDS011;56091;55.756;37.412;2023-01-30T22:16:31;9.27;;;3.20;;
69034;SDS011;56091;55.756;37.412;2023-01-30T22:21:35;8.10;;;3.37;;
69034;SDS011;56091;55.756;37.412;2023-01-30T22:26:37;9.30;;;3.63;;
69034;SDS011;56091;55.756;37.412;2023-01-30T22:31:38;10.23;;;3.27;;
69034;SDS011;56091;55.756;37.412;2023-01-30T22:36:40;8.98;;;3.22;;
69034;SDS011;56091;55.756;37.412;2023-01-30T22:41:41;8.80;;;3.40;;
69034;SDS011;56091;55.756;37.412;2023-01-30T22:46:42;8.07;;;3.30;;
69034;SDS011;56091;55.756;37.412;2023-01-30T22:51:44;8.07;;;3.40;;
69034;SDS011;56091;55.756;37.412;2023-01-30T22:56:46;10.88;;;4.10;;
69034;SDS011;56091;55.756;37.412;2023-01-30T23:01:47;10.90;;;4.10;;
69034;SDS011;56091;55.756;37.412;2023-01-30T23:06:52;5.90;;;2.25;;
69034;SDS011;56091;55.756;37.412;2023-01-30T23:11:54;12.10;;;3.73;;
69034;SDS011;56091;55.756;37.412;2023-01-30T23:17:15;8.75;;;3.58;;
69034;SDS011;56091;55.756;37.412;2023-01-30T23:22:35;9.70;;;3.63;;
69034;SDS011;56091;55.756;37.412;2023-01-30T23:27:35;9.80;;;3.83;;
69034;SDS011;56091;55.756;37.412;2023-01-30T23:32:36;8.90;;;4.10;;
69034;SDS011;56091;55.756;37.412;2023-01-30T23:37:37;10.30;;;4.23;;
69034;SDS011;56091;55.756;37.412;2023-01-30T23:42:56;10.27;;;3.78;;
69034;SDS011;56091;55.756;37.412;2023-01-30T23:47:57;8.93;;;3.90;;
69034;SDS011;56091;55.756;37.412;2023-01-30T23:52:58;10.73;;;4.47;;
69034;SDS011;56091;55.756;37.412;2023-01-30T23:57:58;10.45;;;4.10;;
